sensor_id;sensor_type;location;lat;lon;timestamp;P1;durP1;ratioP1;P2;durP2;ratioP2
11835;SDS011;5977;51.972;7.640;2022-08-01T00:00:52;174.30;;;54.80;;
11835;SDS011;5977;51.972;7.640;2022-08-01T00:03:22;173.97;;;54.50;;
11835;SDS011;5977;51.972;7.640;2022-08-01T00:05:49;173.87;;;54.13;;
11835;SDS011;5977;51.972;7.640;2022-08-01T00:08:17;173.90;;;54.33;;
11835;SDS011;5977;51.972;7.640;2022-08-01T00:10:45;173.60;;;54.57;;
11835;SDS011;5977;51.972;7.640;2022-08-01T00:13:13;174.10;;;54.53;;
11835;SDS011;5977;51.972;7.640;2022-08-01T00:15:41;174.87;;;55.00;;
11835;SDS011;5977;51.972;7.640;2022-08-01T00:18:19;174.63;;;54.70;;
11835;SDS011;5977;51.972;7.640;2022-08-01T00:20:49;174.30;;;54.77;;
11835;SDS011;5977;51.972;7.640;2022-08-01T00:23:17;173.83;;;54.57;;
11835;SDS011;5977;51.972;7.640;2022-08-01T00:25:44;174.40;;;54.60;;
11835;SDS011;5977;51.972;7.640;2022-08-01T00:28:12;173.80;;;54.33;;
11835;SDS011;5977;51.972;7.640;2022-08-01T00:30:40;174.17;;;54.43;;
11835;SDS011;5977;51.972;7.640;2022-08-01T00:33:08;173.93;;;54.43;;
11835;SDS011;5977;51.972;7.640;2022-08-01T00:35:37;174.03;;;54.60;;
11835;SDS011;5977;51.972;7.640;2022-08-01T00:38:05;174.40;;;54.60;;
11835;SDS011;5977;51.972;7.640;2022-08-01T00:40:33;173.83;;;54.43;;
11835;SDS011;5977;51.972;7.640;2022-08-01T00:43:01;173.83;;;54.50;;
11835;SDS011;5977;51.972;7.640;2022-08-01T00:45:29;174.13;;;54.30;;
11835;SDS011;5977;51.972;7.640;2022-08-01T00:47:57;173.53;;;53.80;;
11835;SDS011;5977;51.972;7.640;2022-08-01T00:50:25;174.10;;;54.47;;
11835;SDS011;5977;51.972;7.640;2022-08-01T00:52:54;173.27;;;53.60;;
11835;SDS011;5977;51.972;7.640;2022-08-01T00:55:22;173.63;;;54.03;;
11835;SDS011;5977;51.972;7.640;2022-08-01T00:57:50;174.53;;;54.50;;
11835;SDS011;5977;51.972;7.640;2022-08-01T01:00:31;173.47;;;54.07;;
11835;SDS011;5977;51.972;7.640;2022-08-01T01:03:20;173.27;;;53.80;;
11835;SDS011;5977;51.972;7.640;2022-08-01T01:06:12;173.87;;;54.13;;
11835;SDS011;5977;51.972;7.640;2022-08-01T01:08:58;173.83;;;54.43;;
11835;SDS011;5977;51.972;7.640;2022-08-01T01:11:36;173.87;;;54.10;;
11835;SDS011;5977;51.972;7.640;2022-08-01T01:14:13;173.50;;;54.13;;
11835;SDS011;5977;51.972;7.640;2022-08-01T01:16:48;174.30;;;54.23;;
11835;SDS011;5977;51.972;7.640;2022-08-01T01:19:21;174.17;;;54.27;;
11835;SDS011;5977;51.972;7.640;2022-08-01T01:22:05;173.73;;;54.13;;
11835;SDS011;5977;51.972;7.640;2022-08-01T01:24:46;174.37;;;54.47;;
11835;SDS011;5977;51.972;7.640;2022-08-01T01:27:28;174.37;;;54.30;;
11835;SDS011;5977;51.972;7.640;2022-08-01T01:30:08;173.57;;;53.77;;
11835;SDS011;5977;51.972;7.640;2022-08-01T01:32:38;173.80;;;53.97;;
11835;SDS011;5977;51.972;7.640;2022-08-01T01:35:09;173.10;;;53.93;;
11835;SDS011;5977;51.972;7.640;2022-08-01T01:37:42;172.70;;;53.27;;
11835;SDS011;5977;51.972;7.640;2022-08-01T01:40:12;173.43;;;53.97;;
11835;SDS011;5977;51.972;7.640;2022-08-01T01:42:42;173.80;;;54.07;;
11835;SDS011;5977;51.972;7.640;2022-08-01T01:45:12;174.73;;;54.50;;
11835;SDS011;5977;51.972;7.640;2022-08-01T01:47:41;174.13;;;54.00;;
11835;SDS011;5977;51.972;7.640;2022-08-01T01:50:11;173.03;;;53.77;;
11835;SDS011;5977;51.972;7.640;2022-08-01T01:52:40;173.47;;;53.80;;
11835;SDS011;5977;51.972;7.640;2022-08-01T01:55:11;172.50;;;53.40;;
11835;SDS011;5977;51.972;7.640;2022-08-01T01:57:40;172.77;;;53.53;;
11835;SDS011;5977;51.972;7.640;2022-08-01T02:00:10;172.77;;;53.27;;
11835;SDS011;5977;51.972;7.640;2022-08-01T02:02:41;173.50;;;53.93;;
11835;SDS011;5977;51.972;7.640;2022-08-01T02:05:10;173.63;;;53.80;;
11835;SDS011;5977;51.972;7.640;2022-08-01T02:07:39;172.87;;;53.43;;
11835;SDS011;5977;51.972;7.640;2022-08-01T02:10:08;173.20;;;53.67;;
11835;SDS011;5977;51.972;7.640;2022-08-01T02:12:39;173.53;;;53.87;;
11835;SDS011;5977;51.972;7.640;2022-08-01T02:15:12;173.13;;;53.87;;
11835;SDS011;5977;51.972;7.640;2022-08-01T02:17:43;172.50;;;53.27;;
11835;SDS011;5977;51.972;7.640;2022-08-01T02:20:14;173.30;;;53.80;;
11835;SDS011;5977;51.972;7.640;2022-08-01T02:22:44;173.10;;;53.43;;
11835;SDS011;5977;51.972;7.640;2022-08-01T02:25:17;173.57;;;53.77;;
11835;SDS011;5977;51.972;7.640;2022-08-01T02:27:50;173.40;;;53.73;;
11835;SDS011;5977;51.972;7.640;2022-08-01T02:30:28;172.47;;;52.83;;
11835;SDS011;5977;51.972;7.640;2022-08-01T02:33:02;173.73;;;54.23;;
11835;SDS011;5977;51.972;7.640;2022-08-01T02:35:35;171.90;;;53.10;;
11835;SDS011;5977;51.972;7.640;2022-08-01T02:38:28;172.83;;;53.70;;
11835;SDS011;5977;51.972;7.640;2022-08-01T02:40:59;173.77;;;54.33;;
11835;SDS011;5977;51.972;7.640;2022-08-01T02:43:30;173.13;;;53.73;;
11835;SDS011;5977;51.972;7.640;2022-08-01T02:46:02;172.83;;;53.23;;
11835;SDS011;5977;51.972;7.640;2022-08-01T02:48:34;173.43;;;53.43;;
11835;SDS011;5977;51.972;7.640;2022-08-01T02:51:05;172.87;;;53.53;;
11835;SDS011;5977;51.972;7.640;2022-08-01T02:53:35;173.27;;;53.97;;
11835;SDS011;5977;51.972;7.640;2022-08-01T02:56:10;173.63;;;53.70;;
11835;SDS011;5977;51.972;7.640;2022-08-01T02:58:39;173.20;;;53.73;;
11835;SDS011;5977;51.972;7.640;2022-08-01T03:01:09;173.87;;;53.83;;
11835;SDS011;5977;51.972;7.640;2022-08-01T03:03:38;173.77;;;54.07;;
11835;SDS011;5977;51.972;7.640;2022-08-01T03:06:07;173.50;;;53.77;;
11835;SDS011;5977;51.972;7.640;2022-08-01T03:08:35;174.07;;;53.97;;
11835;SDS011;5977;51.972;7.640;2022-08-01T03:11:05;172.87;;;53.50;;
11835;SDS011;5977;51.972;7.640;2022-08-01T03:13:35;173.67;;;53.80;;
11835;SDS011;5977;51.972;7.640;2022-08-01T03:16:04;173.17;;;53.47;;
11835;SDS011;5977;51.972;7.640;2022-08-01T03:18:34;173.67;;;53.37;;
11835;SDS011;5977;51.972;7.640;2022-08-01T03:21:04;173.17;;;53.73;;
11835;SDS011;5977;51.972;7.640;2022-08-01T03:23:34;173.87;;;54.10;;
11835;SDS011;5977;51.972;7.640;2022-08-01T03:26:04;173.63;;;54.27;;
11835;SDS011;5977;51.972;7.640;2022-08-01T03:28:32;172.37;;;53.63;;
11835;SDS011;5977;51.972;7.640;2022-08-01T03:31:00;172.97;;;53.60;;
11835;SDS011;5977;51.972;7.640;2022-08-01T03:33:29;173.30;;;53.83;;
11835;SDS011;5977;51.972;7.640;2022-08-01T03:35:59;172.83;;;53.83;;
11835;SDS011;5977;51.972;7.640;2022-08-01T03:38:29;172.57;;;53.70;;
11835;SDS011;5977;51.972;7.640;2022-08-01T03:41:02;172.43;;;53.70;;
11835;SDS011;5977;51.972;7.640;2022-08-01T03:43:37;173.17;;;53.63;;
11835;SDS011;5977;51.972;7.640;2022-08-01T03:46:09;172.93;;;53.60;;
11835;SDS011;5977;51.972;7.640;2022-08-01T03:48:41;173.80;;;53.90;;
11835;SDS011;5977;51.972;7.640;2022-08-01T03:51:15;173.33;;;53.93;;
11835;SDS011;5977;51.972;7.640;2022-08-01T03:53:45;172.43;;;53.57;;
11835;SDS011;5977;51.972;7.640;2022-08-01T03:56:16;172.83;;;53.60;;
11835;SDS011;5977;51.972;7.640;2022-08-01T03:58:46;173.50;;;54.07;;
11835;SDS011;5977;51.972;7.640;2022-08-01T04:01:15;173.67;;;54.03;;
11835;SDS011;5977;51.972;7.640;2022-08-01T04:03:45;173.43;;;54.00;;
11835;SDS011;5977;51.972;7.640;2022-08-01T04:06:14;173.47;;;53.80;;
11835;SDS011;5977;51.972;7.640;2022-08-01T04:08:43;173.47;;;53.77;;
11835;SDS011;5977;51.972;7.640;2022-08-01T04:11:21;173.93;;;53.87;;
11835;SDS011;5977;51.972;7.640;2022-08-01T04:13:51;173.87;;;54.07;;
11835;SDS011;5977;51.972;7.640;2022-08-01T04:16:20;173.00;;;53.73;;
11835;SDS011;5977;51.972;7.640;2022-08-01T04:18:49;172.60;;;53.00;;
11835;SDS011;5977;51.972;7.640;2022-08-01T04:21:20;173.10;;;53.67;;
11835;SDS011;5977;51.972;7.640;2022-08-01T04:23:50;173.13;;;53.37;;
11835;SDS011;5977;51.972;7.640;2022-08-01T04:26:21;172.77;;;53.50;;
11835;SDS011;5977;51.972;7.640;2022-08-01T04:28:50;172.10;;;53.37;;
11835;SDS011;5977;51.972;7.640;2022-08-01T04:31:21;172.03;;;53.40;;
11835;SDS011;5977;51.972;7.640;2022-08-01T04:33:52;171.77;;;53.00;;
11835;SDS011;5977;51.972;7.640;2022-08-01T04:36:23;172.73;;;53.50;;
11835;SDS011;5977;51.972;7.640;2022-08-01T04:38:54;172.50;;;53.63;;
11835;SDS011;5977;51.972;7.640;2022-08-01T04:41:26;171.87;;;52.93;;
11835;SDS011;5977;51.972;7.640;2022-08-01T04:43:55;173.23;;;54.03;;
11835;SDS011;5977;51.972;7.640;2022-08-01T04:46:25;172.30;;;53.40;;
11835;SDS011;5977;51.972;7.640;2022-08-01T04:48:54;173.33;;;54.10;;
11835;SDS011;5977;51.972;7.640;2022-08-01T04:51:24;171.63;;;53.30;;
11835;SDS011;5977;51.972;7.640;2022-08-01T04:53:52;172.47;;;53.40;;
11835;SDS011;5977;51.972;7.640;2022-08-01T04:56:20;173.07;;;53.90;;
11835;SDS011;5977;51.972;7.640;2022-08-01T04:58:48;171.90;;;53.63;;
11835;SDS011;5977;51.972;7.640;2022-08-01T05:01:48;172.43;;;53.33;;
11835;SDS011;5977;51.972;7.640;2022-08-01T05:04:16;172.33;;;53.40;;
11835;SDS011;5977;51.972;7.640;2022-08-01T05:06:46;172.33;;;53.73;;
11835;SDS011;5977;51.972;7.640;2022-08-01T05:09:13;172.73;;;53.73;;
11835;SDS011;5977;51.972;7.640;2022-08-01T05:11:42;171.90;;;53.80;;
11835;SDS011;5977;51.972;7.640;2022-08-01T05:14:10;170.83;;;53.20;;
11835;SDS011;5977;51.972;7.640;2022-08-01T05:16:37;171.27;;;53.33;;
11835;SDS011;5977;51.972;7.640;2022-08-01T05:19:06;171.43;;;53.43;;
11835;SDS011;5977;51.972;7.640;2022-08-01T05:21:34;170.53;;;53.07;;
11835;SDS011;5977;51.972;7.640;2022-08-01T05:24:04;170.80;;;53.10;;
11835;SDS011;5977;51.972;7.640;2022-08-01T05:26:32;170.37;;;53.10;;
11835;SDS011;5977;51.972;7.640;2022-08-01T05:29:01;170.87;;;53.17;;
11835;SDS011;5977;51.972;7.640;2022-08-01T05:31:29;170.40;;;52.87;;
11835;SDS011;5977;51.972;7.640;2022-08-01T05:34:00;169.93;;;52.57;;
11835;SDS011;5977;51.972;7.640;2022-08-01T05:36:28;170.10;;;52.80;;
11835;SDS011;5977;51.972;7.640;2022-08-01T05:38:56;170.97;;;53.40;;
11835;SDS011;5977;51.972;7.640;2022-08-01T05:41:25;170.13;;;52.87;;
11835;SDS011;5977;51.972;7.640;2022-08-01T05:43:53;171.37;;;53.57;;
11835;SDS011;5977;51.972;7.640;2022-08-01T05:46:21;170.70;;;53.30;;
11835;SDS011;5977;51.972;7.640;2022-08-01T05:48:52;170.27;;;52.90;;
11835;SDS011;5977;51.972;7.640;2022-08-01T05:51:21;170.60;;;52.90;;
11835;SDS011;5977;51.972;7.640;2022-08-01T05:53:48;170.73;;;52.77;;
11835;SDS011;5977;51.972;7.640;2022-08-01T05:56:16;170.13;;;52.60;;
11835;SDS011;5977;51.972;7.640;2022-08-01T05:58:46;169.70;;;52.50;;
11835;SDS011;5977;51.972;7.640;2022-08-01T06:01:14;170.87;;;53.03;;
11835;SDS011;5977;51.972;7.640;2022-08-01T06:03:42;170.33;;;52.63;;
11835;SDS011;5977;51.972;7.640;2022-08-01T06:06:10;169.70;;;52.50;;
11835;SDS011;5977;51.972;7.640;2022-08-01T06:08:38;170.33;;;52.50;;
11835;SDS011;5977;51.972;7.640;2022-08-01T06:11:06;170.03;;;52.63;;
11835;SDS011;5977;51.972;7.640;2022-08-01T06:13:34;170.67;;;53.13;;
11835;SDS011;5977;51.972;7.640;2022-08-01T06:16:15;170.73;;;53.30;;
11835;SDS011;5977;51.972;7.640;2022-08-01T06:18:43;171.07;;;53.20;;
11835;SDS011;5977;51.972;7.640;2022-08-01T06:21:11;170.77;;;53.00;;
11835;SDS011;5977;51.972;7.640;2022-08-01T06:23:39;171.63;;;53.73;;
11835;SDS011;5977;51.972;7.640;2022-08-01T06:26:08;171.20;;;53.13;;
11835;SDS011;5977;51.972;7.640;2022-08-01T06:28:36;170.47;;;52.43;;
11835;SDS011;5977;51.972;7.640;2022-08-01T06:31:04;170.77;;;52.47;;
11835;SDS011;5977;51.972;7.640;2022-08-01T06:33:34;171.00;;;53.03;;
11835;SDS011;5977;51.972;7.640;2022-08-01T06:36:02;171.03;;;53.37;;
11835;SDS011;5977;51.972;7.640;2022-08-01T06:38:30;170.53;;;52.87;;
11835;SDS011;5977;51.972;7.640;2022-08-01T06:40:58;170.93;;;53.23;;
11835;SDS011;5977;51.972;7.640;2022-08-01T06:43:26;170.40;;;52.90;;
11835;SDS011;5977;51.972;7.640;2022-08-01T06:45:54;169.90;;;52.83;;
11835;SDS011;5977;51.972;7.640;2022-08-01T06:48:22;169.67;;;52.50;;
11835;SDS011;5977;51.972;7.640;2022-08-01T06:50:51;170.40;;;52.90;;
11835;SDS011;5977;51.972;7.640;2022-08-01T06:53:34;170.33;;;52.97;;
11835;SDS011;5977;51.972;7.640;2022-08-01T06:56:03;169.47;;;52.50;;
11835;SDS011;5977;51.972;7.640;2022-08-01T06:58:31;170.30;;;52.90;;
11835;SDS011;5977;51.972;7.640;2022-08-01T07:01:00;169.57;;;52.23;;
11835;SDS011;5977;51.972;7.640;2022-08-01T07:03:32;170.50;;;53.00;;
11835;SDS011;5977;51.972;7.640;2022-08-01T07:06:21;169.70;;;52.33;;
11835;SDS011;5977;51.972;7.640;2022-08-01T07:08:50;169.47;;;52.40;;
11835;SDS011;5977;51.972;7.640;2022-08-01T07:11:17;170.03;;;52.67;;
11835;SDS011;5977;51.972;7.640;2022-08-01T07:13:45;169.77;;;52.60;;
11835;SDS011;5977;51.972;7.640;2022-08-01T07:16:13;170.00;;;52.80;;
11835;SDS011;5977;51.972;7.640;2022-08-01T07:18:42;169.37;;;52.37;;
11835;SDS011;5977;51.972;7.640;2022-08-01T07:21:10;169.60;;;52.60;;
11835;SDS011;5977;51.972;7.640;2022-08-01T07:24:00;169.87;;;52.73;;
11835;SDS011;5977;51.972;7.640;2022-08-01T07:26:38;170.13;;;52.83;;
11835;SDS011;5977;51.972;7.640;2022-08-01T07:29:19;169.17;;;52.27;;
11835;SDS011;5977;51.972;7.640;2022-08-01T07:31:48;170.57;;;53.10;;
11835;SDS011;5977;51.972;7.640;2022-08-01T07:34:16;170.10;;;52.87;;
11835;SDS011;5977;51.972;7.640;2022-08-01T07:36:45;169.67;;;53.17;;
11835;SDS011;5977;51.972;7.640;2022-08-01T07:39:14;169.43;;;52.77;;
11835;SDS011;5977;51.972;7.640;2022-08-01T07:41:42;170.30;;;53.00;;
11835;SDS011;5977;51.972;7.640;2022-08-01T07:44:30;171.03;;;53.53;;
11835;SDS011;5977;51.972;7.640;2022-08-01T07:46:57;170.13;;;52.87;;
11835;SDS011;5977;51.972;7.640;2022-08-01T07:49:25;170.43;;;53.10;;
11835;SDS011;5977;51.972;7.640;2022-08-01T07:51:53;171.33;;;53.67;;
11835;SDS011;5977;51.972;7.640;2022-08-01T07:54:40;171.60;;;53.53;;
11835;SDS011;5977;51.972;7.640;2022-08-01T07:57:08;170.87;;;53.50;;
11835;SDS011;5977;51.972;7.640;2022-08-01T07:59:36;170.40;;;53.13;;
11835;SDS011;5977;51.972;7.640;2022-08-01T08:02:04;170.90;;;52.90;;
11835;SDS011;5977;51.972;7.640;2022-08-01T08:04:32;171.33;;;53.27;;
11835;SDS011;5977;51.972;7.640;2022-08-01T08:07:00;170.30;;;52.83;;
11835;SDS011;5977;51.972;7.640;2022-08-01T08:09:29;170.07;;;52.60;;
11835;SDS011;5977;51.972;7.640;2022-08-01T08:12:05;170.77;;;53.23;;
11835;SDS011;5977;51.972;7.640;2022-08-01T08:14:34;169.30;;;52.43;;
11835;SDS011;5977;51.972;7.640;2022-08-01T08:17:02;170.30;;;53.20;;
11835;SDS011;5977;51.972;7.640;2022-08-01T08:19:30;170.10;;;53.07;;
11835;SDS011;5977;51.972;7.640;2022-08-01T08:22:04;172.13;;;53.97;;
11835;SDS011;5977;51.972;7.640;2022-08-01T08:24:33;171.77;;;53.83;;
11835;SDS011;5977;51.972;7.640;2022-08-01T08:27:12;171.43;;;53.77;;
11835;SDS011;5977;51.972;7.640;2022-08-01T08:29:41;171.77;;;53.43;;
11835;SDS011;5977;51.972;7.640;2022-08-01T08:32:10;170.87;;;53.53;;
11835;SDS011;5977;51.972;7.640;2022-08-01T08:34:38;171.83;;;53.60;;
11835;SDS011;5977;51.972;7.640;2022-08-01T08:37:07;171.50;;;53.67;;
11835;SDS011;5977;51.972;7.640;2022-08-01T08:39:35;170.03;;;52.97;;
11835;SDS011;5977;51.972;7.640;2022-08-01T08:42:08;171.07;;;53.57;;
11835;SDS011;5977;51.972;7.640;2022-08-01T08:44:37;169.90;;;53.17;;
11835;SDS011;5977;51.972;7.640;2022-08-01T08:47:10;170.67;;;53.33;;
11835;SDS011;5977;51.972;7.640;2022-08-01T08:49:45;170.50;;;53.00;;
11835;SDS011;5977;51.972;7.640;2022-08-01T08:52:15;170.83;;;53.43;;
11835;SDS011;5977;51.972;7.640;2022-08-01T08:54:44;171.73;;;53.70;;
11835;SDS011;5977;51.972;7.640;2022-08-01T08:57:13;170.87;;;53.60;;
11835;SDS011;5977;51.972;7.640;2022-08-01T08:59:43;170.80;;;53.37;;
11835;SDS011;5977;51.972;7.640;2022-08-01T09:02:12;170.93;;;53.50;;
11835;SDS011;5977;51.972;7.640;2022-08-01T09:04:40;171.20;;;53.60;;
11835;SDS011;5977;51.972;7.640;2022-08-01T09:07:08;171.03;;;53.20;;
11835;SDS011;5977;51.972;7.640;2022-08-01T09:09:37;171.33;;;53.80;;
11835;SDS011;5977;51.972;7.640;2022-08-01T09:12:07;171.63;;;54.10;;
11835;SDS011;5977;51.972;7.640;2022-08-01T09:14:43;172.07;;;53.80;;
11835;SDS011;5977;51.972;7.640;2022-08-01T09:17:15;170.63;;;53.47;;
11835;SDS011;5977;51.972;7.640;2022-08-01T09:19:44;171.23;;;53.90;;
11835;SDS011;5977;51.972;7.640;2022-08-01T09:22:14;170.83;;;53.43;;
11835;SDS011;5977;51.972;7.640;2022-08-01T09:24:56;171.13;;;53.67;;
11835;SDS011;5977;51.972;7.640;2022-08-01T09:27:25;171.93;;;54.17;;
11835;SDS011;5977;51.972;7.640;2022-08-01T09:29:55;171.83;;;53.90;;
11835;SDS011;5977;51.972;7.640;2022-08-01T09:32:36;170.30;;;53.07;;
11835;SDS011;5977;51.972;7.640;2022-08-01T09:35:24;171.83;;;53.90;;
11835;SDS011;5977;51.972;7.640;2022-08-01T09:38:15;171.80;;;53.93;;
11835;SDS011;5977;51.972;7.640;2022-08-01T09:40:45;171.27;;;53.70;;
11835;SDS011;5977;51.972;7.640;2022-08-01T09:43:15;172.30;;;53.97;;
11835;SDS011;5977;51.972;7.640;2022-08-01T09:45:46;172.73;;;53.90;;
11835;SDS011;5977;51.972;7.640;2022-08-01T09:48:18;172.73;;;54.03;;
11835;SDS011;5977;51.972;7.640;2022-08-01T09:50:53;172.33;;;53.90;;
11835;SDS011;5977;51.972;7.640;2022-08-01T09:53:39;172.23;;;53.60;;
11835;SDS011;5977;51.972;7.640;2022-08-01T09:56:17;172.47;;;53.97;;
11835;SDS011;5977;51.972;7.640;2022-08-01T09:58:49;172.23;;;53.90;;
11835;SDS011;5977;51.972;7.640;2022-08-01T10:01:27;171.57;;;53.87;;
11835;SDS011;5977;51.972;7.640;2022-08-01T10:04:07;171.27;;;53.33;;
11835;SDS011;5977;51.972;7.640;2022-08-01T10:06:37;170.40;;;53.27;;
11835;SDS011;5977;51.972;7.640;2022-08-01T10:09:08;171.20;;;53.33;;
11835;SDS011;5977;51.972;7.640;2022-08-01T10:11:36;171.03;;;53.50;;
11835;SDS011;5977;51.972;7.640;2022-08-01T10:14:06;171.60;;;53.90;;
11835;SDS011;5977;51.972;7.640;2022-08-01T10:16:36;171.57;;;53.37;;
11835;SDS011;5977;51.972;7.640;2022-08-01T10:19:05;172.70;;;54.07;;
11835;SDS011;5977;51.972;7.640;2022-08-01T10:21:40;172.70;;;53.87;;
11835;SDS011;5977;51.972;7.640;2022-08-01T10:24:24;171.83;;;53.73;;
11835;SDS011;5977;51.972;7.640;2022-08-01T10:26:55;172.67;;;54.10;;
11835;SDS011;5977;51.972;7.640;2022-08-01T10:29:38;171.20;;;53.60;;
11835;SDS011;5977;51.972;7.640;2022-08-01T10:32:26;171.40;;;53.47;;
11835;SDS011;5977;51.972;7.640;2022-08-01T10:34:54;170.23;;;52.80;;
11835;SDS011;5977;51.972;7.640;2022-08-01T10:37:23;171.13;;;53.77;;
11835;SDS011;5977;51.972;7.640;2022-08-01T10:39:52;171.50;;;54.17;;
11835;SDS011;5977;51.972;7.640;2022-08-01T10:42:41;171.30;;;53.70;;
11835;SDS011;5977;51.972;7.640;2022-08-01T10:45:11;170.33;;;53.20;;
11835;SDS011;5977;51.972;7.640;2022-08-01T10:47:44;171.40;;;53.70;;
11835;SDS011;5977;51.972;7.640;2022-08-01T10:50:17;170.70;;;53.60;;
11835;SDS011;5977;51.972;7.640;2022-08-01T10:53:10;172.00;;;54.00;;
11835;SDS011;5977;51.972;7.640;2022-08-01T10:55:52;170.53;;;53.37;;
11835;SDS011;5977;51.972;7.640;2022-08-01T10:58:29;170.90;;;53.60;;
11835;SDS011;5977;51.972;7.640;2022-08-01T11:01:20;171.97;;;54.10;;
11835;SDS011;5977;51.972;7.640;2022-08-01T11:04:03;171.50;;;53.90;;
11835;SDS011;5977;51.972;7.640;2022-08-01T11:06:42;172.83;;;54.23;;
11835;SDS011;5977;51.972;7.640;2022-08-01T11:09:37;172.00;;;54.13;;
11835;SDS011;5977;51.972;7.640;2022-08-01T11:12:08;172.27;;;54.23;;
11835;SDS011;5977;51.972;7.640;2022-08-01T11:17:56;171.07;;;53.57;;
11835;SDS011;5977;51.972;7.640;2022-08-01T11:20:27;172.07;;;54.03;;
11835;SDS011;5977;51.972;7.640;2022-08-01T11:29:12;172.20;;;54.83;;
11835;SDS011;5977;51.972;7.640;2022-08-01T11:31:47;172.53;;;54.80;;
11835;SDS011;5977;51.972;7.640;2022-08-01T11:34:16;171.13;;;54.27;;
11835;SDS011;5977;51.972;7.640;2022-08-01T11:36:46;172.90;;;54.97;;
11835;SDS011;5977;51.972;7.640;2022-08-01T11:39:24;172.97;;;54.93;;
11835;SDS011;5977;51.972;7.640;2022-08-01T11:41:54;171.43;;;54.53;;
11835;SDS011;5977;51.972;7.640;2022-08-01T11:44:47;172.60;;;55.00;;
11835;SDS011;5977;51.972;7.640;2022-08-01T11:47:16;172.77;;;54.70;;
11835;SDS011;5977;51.972;7.640;2022-08-01T11:49:47;171.60;;;54.00;;
11835;SDS011;5977;51.972;7.640;2022-08-01T11:52:25;172.37;;;54.50;;
11835;SDS011;5977;51.972;7.640;2022-08-01T11:54:55;173.03;;;54.27;;
11835;SDS011;5977;51.972;7.640;2022-08-01T11:57:24;172.57;;;54.00;;
11835;SDS011;5977;51.972;7.640;2022-08-01T12:00:01;172.93;;;53.80;;
11835;SDS011;5977;51.972;7.640;2022-08-01T12:02:39;173.23;;;54.13;;
11835;SDS011;5977;51.972;7.640;2022-08-01T12:05:11;172.73;;;53.83;;
11835;SDS011;5977;51.972;7.640;2022-08-01T12:07:42;173.33;;;53.73;;
11835;SDS011;5977;51.972;7.640;2022-08-01T12:10:13;174.70;;;54.67;;
11835;SDS011;5977;51.972;7.640;2022-08-01T12:12:42;172.27;;;53.53;;
11835;SDS011;5977;51.972;7.640;2022-08-01T12:15:11;172.70;;;54.00;;
11835;SDS011;5977;51.972;7.640;2022-08-01T12:17:40;173.47;;;54.03;;
11835;SDS011;5977;51.972;7.640;2022-08-01T12:20:24;173.27;;;53.73;;
11835;SDS011;5977;51.972;7.640;2022-08-01T12:22:58;172.30;;;53.80;;
11835;SDS011;5977;51.972;7.640;2022-08-01T12:25:28;173.10;;;53.67;;
11835;SDS011;5977;51.972;7.640;2022-08-01T12:27:59;173.53;;;54.13;;
11835;SDS011;5977;51.972;7.640;2022-08-01T12:30:28;173.10;;;54.03;;
11835;SDS011;5977;51.972;7.640;2022-08-01T12:32:58;173.60;;;54.70;;
11835;SDS011;5977;51.972;7.640;2022-08-01T12:35:26;173.27;;;54.63;;
11835;SDS011;5977;51.972;7.640;2022-08-01T12:37:56;172.87;;;54.03;;
11835;SDS011;5977;51.972;7.640;2022-08-01T12:40:27;173.03;;;54.13;;
11835;SDS011;5977;51.972;7.640;2022-08-01T12:42:58;173.27;;;54.00;;
11835;SDS011;5977;51.972;7.640;2022-08-01T12:45:29;172.80;;;54.30;;
11835;SDS011;5977;51.972;7.640;2022-08-01T12:48:01;173.23;;;54.60;;
11835;SDS011;5977;51.972;7.640;2022-08-01T12:50:34;172.43;;;54.30;;
11835;SDS011;5977;51.972;7.640;2022-08-01T12:53:07;173.23;;;54.57;;
11835;SDS011;5977;51.972;7.640;2022-08-01T12:55:45;173.70;;;55.17;;
11835;SDS011;5977;51.972;7.640;2022-08-01T12:58:24;171.67;;;54.60;;
11835;SDS011;5977;51.972;7.640;2022-08-01T13:01:02;171.93;;;54.87;;
11835;SDS011;5977;51.972;7.640;2022-08-01T13:03:31;169.87;;;53.73;;
11835;SDS011;5977;51.972;7.640;2022-08-01T13:05:59;170.30;;;53.97;;
11835;SDS011;5977;51.972;7.640;2022-08-01T13:08:30;170.93;;;54.37;;
11835;SDS011;5977;51.972;7.640;2022-08-01T13:11:00;171.97;;;55.00;;
11835;SDS011;5977;51.972;7.640;2022-08-01T13:13:37;171.80;;;54.97;;
11835;SDS011;5977;51.972;7.640;2022-08-01T13:16:07;170.37;;;53.57;;
11835;SDS011;5977;51.972;7.640;2022-08-01T13:18:49;170.97;;;54.40;;
11835;SDS011;5977;51.972;7.640;2022-08-01T13:21:18;170.93;;;54.67;;
11835;SDS011;5977;51.972;7.640;2022-08-01T13:24:01;171.90;;;54.73;;
11835;SDS011;5977;51.972;7.640;2022-08-01T13:26:37;172.23;;;55.40;;
11835;SDS011;5977;51.972;7.640;2022-08-01T13:29:09;171.53;;;54.87;;
11835;SDS011;5977;51.972;7.640;2022-08-01T13:31:38;172.63;;;55.83;;
11835;SDS011;5977;51.972;7.640;2022-08-01T13:34:08;171.53;;;54.80;;
11835;SDS011;5977;51.972;7.640;2022-08-01T13:36:36;172.60;;;55.70;;
11835;SDS011;5977;51.972;7.640;2022-08-01T13:39:06;172.23;;;55.63;;
11835;SDS011;5977;51.972;7.640;2022-08-01T13:41:52;172.20;;;55.23;;
11835;SDS011;5977;51.972;7.640;2022-08-01T13:44:20;171.87;;;55.57;;
11835;SDS011;5977;51.972;7.640;2022-08-01T13:46:47;171.87;;;55.23;;
11835;SDS011;5977;51.972;7.640;2022-08-01T13:49:16;172.33;;;55.30;;
11835;SDS011;5977;51.972;7.640;2022-08-01T13:51:45;171.73;;;55.13;;
11835;SDS011;5977;51.972;7.640;2022-08-01T13:54:17;172.00;;;55.37;;
11835;SDS011;5977;51.972;7.640;2022-08-01T13:56:45;172.17;;;55.37;;
11835;SDS011;5977;51.972;7.640;2022-08-01T13:59:13;171.93;;;55.13;;
11835;SDS011;5977;51.972;7.640;2022-08-01T14:01:41;172.40;;;55.67;;
11835;SDS011;5977;51.972;7.640;2022-08-01T14:04:09;172.60;;;55.63;;
11835;SDS011;5977;51.972;7.640;2022-08-01T14:06:37;171.23;;;54.93;;
11835;SDS011;5977;51.972;7.640;2022-08-01T14:09:07;172.27;;;55.57;;
11835;SDS011;5977;51.972;7.640;2022-08-01T14:11:50;171.23;;;54.83;;
11835;SDS011;5977;51.972;7.640;2022-08-01T14:14:18;173.20;;;56.30;;
11835;SDS011;5977;51.972;7.640;2022-08-01T14:16:46;170.93;;;55.03;;
11835;SDS011;5977;51.972;7.640;2022-08-01T14:19:14;172.53;;;55.70;;
11835;SDS011;5977;51.972;7.640;2022-08-01T14:22:02;171.87;;;55.30;;
11835;SDS011;5977;51.972;7.640;2022-08-01T14:24:30;173.03;;;55.57;;
11835;SDS011;5977;51.972;7.640;2022-08-01T14:26:59;172.47;;;55.77;;
11835;SDS011;5977;51.972;7.640;2022-08-01T14:29:28;172.83;;;55.80;;
11835;SDS011;5977;51.972;7.640;2022-08-01T14:32:16;172.63;;;55.50;;
11835;SDS011;5977;51.972;7.640;2022-08-01T14:34:47;172.00;;;55.23;;
11835;SDS011;5977;51.972;7.640;2022-08-01T14:37:15;171.37;;;55.13;;
11835;SDS011;5977;51.972;7.640;2022-08-01T14:39:43;173.37;;;56.27;;
11835;SDS011;5977;51.972;7.640;2022-08-01T14:42:21;172.70;;;56.50;;
11835;SDS011;5977;51.972;7.640;2022-08-01T14:44:49;172.13;;;55.97;;
11835;SDS011;5977;51.972;7.640;2022-08-01T14:47:16;171.90;;;55.97;;
11835;SDS011;5977;51.972;7.640;2022-08-01T14:49:47;172.23;;;55.90;;
11835;SDS011;5977;51.972;7.640;2022-08-01T14:52:15;172.80;;;55.97;;
11835;SDS011;5977;51.972;7.640;2022-08-01T14:54:43;171.93;;;56.20;;
11835;SDS011;5977;51.972;7.640;2022-08-01T14:57:11;172.70;;;56.50;;